sensor_id;sensor_type;location;lat;lon;timestamp;pressure;altitude;pressure_sealevel;temperature;humidity
74103;BME280;62853;46.166;3.640;2023-05-20T09:34:23;101935.09;;;26.17;35.16
74103;BME280;62853;46.166;3.640;2023-05-20T09:36:49;101961.38;;;27.84;35.62
74103;BME280;62853;46.166;3.640;2023-05-20T09:39:19;101963.72;;;28.68;33.18
74103;BME280;62853;46.166;3.640;2023-05-20T09:42:06;101962.97;;;29.98;33.25
74103;BME280;62853;46.166;3.640;2023-05-20T09:44:36;101964.41;;;27.40;34.43
74103;BME280;62853;46.166;3.640;2023-05-20T09:47:02;101958.38;;;26.18;36.05
74103;BME280;62853;46.166;3.640;2023-05-20T09:49:30;101961.50;;;25.43;37.98
74103;BME280;62853;46.166;3.640;2023-05-20T09:51:58;101962.84;;;25.12;39.47
74103;BME280;62853;46.166;3.640;2023-05-20T09:54:24;101959.94;;;24.77;39.98
74103;BME280;62853;46.166;3.640;2023-05-20T09:56:50;101960.31;;;24.82;39.21
74103;BME280;62853;46.166;3.640;2023-05-20T09:59:16;101958.84;;;24.70;38.56
74103;BME280;62853;46.166;3.640;2023-05-20T10:01:43;101943.88;;;24.48;42.06
74103;BME280;62853;46.166;3.640;2023-05-20T10:04:10;101937.69;;;24.75;40.87
74103;BME280;62853;46.166;3.640;2023-05-20T10:09:16;101937.84;;;24.74;40.26
74103;BME280;62853;46.166;3.640;2023-05-20T10:15:16;101929.34;;;24.96;39.96
74103;BME280;62853;46.166;3.640;2023-05-20T10:18:03;101935.00;;;24.38;42.76
74103;BME280;62853;46.166;3.640;2023-05-20T10:20:30;101926.59;;;24.78;41.39
74103;BME280;62853;46.166;3.640;2023-05-20T10:22:56;101921.06;;;25.43;39.27
74103;BME280;62853;46.166;3.640;2023-05-20T10:25:28;101913.47;;;25.91;42.65
74103;BME280;62853;46.166;3.640;2023-05-20T10:28:04;101904.06;;;26.64;42.19
74103;BME280;62853;46.166;3.640;2023-05-20T10:30:32;101909.84;;;26.78;37.71
74103;BME280;62853;46.166;3.640;2023-05-20T10:33:02;101904.63;;;26.84;41.32
74103;BME280;62853;46.166;3.640;2023-05-20T10:35:30;101906.81;;;26.72;38.22
74103;BME280;62853;46.166;3.640;2023-05-20T10:38:10;101899.97;;;26.60;40.70
74103;BME280;62853;46.166;3.640;2023-05-20T10:40:35;101895.31;;;26.28;38.58
74103;BME280;62853;46.166;3.640;2023-05-20T10:43:08;101899.47;;;26.57;38.75
74103;BME280;62853;46.166;3.640;2023-05-20T10:45:46;101899.44;;;26.06;39.17
74103;BME280;62853;46.166;3.640;2023-05-20T10:48:23;101900.41;;;25.16;41.59
74103;BME280;62853;46.166;3.640;2023-05-20T10:50:49;101894.28;;;24.50;40.94
74103;BME280;62853;46.166;3.640;2023-05-20T10:53:14;101904.00;;;23.86;40.12
74103;BME280;62853;46.166;3.640;2023-05-20T10:55:47;101902.78;;;23.61;41.38
74103;BME280;62853;46.166;3.640;2023-05-20T10:58:13;101897.34;;;23.81;43.17
74103;BME280;62853;46.166;3.640;2023-05-20T11:00:39;101888.31;;;23.72;45.20
74103;BME280;62853;46.166;3.640;2023-05-20T11:03:05;101898.53;;;23.39;43.52
74103;BME280;62853;46.166;3.640;2023-05-20T11:05:31;101884.38;;;23.37;46.76
74103;BME280;62853;46.166;3.640;2023-05-20T11:08:06;101888.59;;;23.59;47.40
74103;BME280;62853;46.166;3.640;2023-05-20T11:10:33;101885.13;;;23.96;47.66
74103;BME280;62853;46.166;3.640;2023-05-20T11:13:00;101889.41;;;23.89;42.66
74103;BME280;62853;46.166;3.640;2023-05-20T11:15:25;101880.94;;;23.84;42.34
74103;BME280;62853;46.166;3.640;2023-05-20T11:17:54;101886.03;;;23.77;46.18
74103;BME280;62853;46.166;3.640;2023-05-20T11:20:24;101886.38;;;23.45;45.05
74103;BME280;62853;46.166;3.640;2023-05-20T11:22:51;101876.16;;;23.48;43.48
74103;BME280;62853;46.166;3.640;2023-05-20T11:25:17;101870.50;;;23.42;46.56
74103;BME280;62853;46.166;3.640;2023-05-20T11:27:43;101875.75;;;23.33;45.64
74103;BME280;62853;46.166;3.640;2023-05-20T11:30:12;101864.66;;;23.66;45.43
74103;BME280;62853;46.166;3.640;2023-05-20T11:32:58;101862.09;;;23.84;46.14
74103;BME280;62853;46.166;3.640;2023-05-20T11:35:26;101875.97;;;23.79;43.57
74103;BME280;62853;46.166;3.640;2023-05-20T11:37:55;101872.00;;;23.73;43.95
74103;BME280;62853;46.166;3.640;2023-05-20T11:40:25;101878.84;;;23.58;46.30
74103;BME280;62853;46.166;3.640;2023-05-20T11:42:55;101868.66;;;23.62;43.35
74103;BME280;62853;46.166;3.640;2023-05-20T11:45:21;101862.16;;;23.54;44.80
74103;BME280;62853;46.166;3.640;2023-05-20T11:48:00;101875.19;;;23.20;45.38
74103;BME280;62853;46.166;3.640;2023-05-20T11:50:26;101859.47;;;23.06;44.80
74103;BME280;62853;46.166;3.640;2023-05-20T11:52:59;101864.00;;;22.85;46.74
74103;BME280;62853;46.166;3.640;2023-05-20T11:55:25;101853.59;;;22.61;45.56
74103;BME280;62853;46.166;3.640;2023-05-20T11:57:51;101861.97;;;22.58;47.07
74103;BME280;62853;46.166;3.640;2023-05-20T12:00:17;101852.16;;;22.47;46.08
74103;BME280;62853;46.166;3.640;2023-05-20T12:02:43;101855.72;;;22.48;46.67
74103;BME280;62853;46.166;3.640;2023-05-20T12:05:08;101849.22;;;22.51;45.82
74103;BME280;62853;46.166;3.640;2023-05-20T12:07:34;101848.69;;;22.76;47.99
74103;BME280;62853;46.166;3.640;2023-05-20T12:10:02;101841.63;;;22.95;47.05
74103;BME280;62853;46.166;3.640;2023-05-20T12:12:28;101834.41;;;23.05;49.06
74103;BME280;62853;46.166;3.640;2023-05-20T12:14:53;101836.28;;;23.04;47.44
74103;BME280;62853;46.166;3.640;2023-05-20T12:17:18;101832.59;;;23.06;46.96
74103;BME280;62853;46.166;3.640;2023-05-20T12:19:44;101840.25;;;23.00;51.19
74103;BME280;62853;46.166;3.640;2023-05-20T12:22:10;101824.94;;;22.91;49.57
74103;BME280;62853;46.166;3.640;2023-05-20T12:24:35;101828.06;;;22.96;46.92
74103;BME280;62853;46.166;3.640;2023-05-20T12:27:00;101827.50;;;22.93;48.72
74103;BME280;62853;46.166;3.640;2023-05-20T12:29:28;101828.22;;;23.04;50.90
74103;BME280;62853;46.166;3.640;2023-05-20T12:31:54;101822.97;;;23.03;50.48
74103;BME280;62853;46.166;3.640;2023-05-20T12:34:19;101824.81;;;22.83;46.89
74103;BME280;62853;46.166;3.640;2023-05-20T12:36:44;101827.34;;;22.84;50.23
74103;BME280;62853;46.166;3.640;2023-05-20T12:39:10;101818.31;;;22.95;52.29
74103;BME280;62853;46.166;3.640;2023-05-20T12:41:36;101827.53;;;23.12;50.26
74103;BME280;62853;46.166;3.640;2023-05-20T12:44:01;101826.13;;;23.18;47.95
74103;BME280;62853;46.166;3.640;2023-05-20T12:46:27;101812.38;;;23.31;46.46
74103;BME280;62853;46.166;3.640;2023-05-20T12:48:53;101812.69;;;23.18;46.62
74103;BME280;62853;46.166;3.640;2023-05-20T12:51:18;101821.03;;;23.15;51.04
74103;BME280;62853;46.166;3.640;2023-05-20T12:53:45;101818.63;;;23.21;49.74
74103;BME280;62853;46.166;3.640;2023-05-20T12:56:10;101820.00;;;22.96;50.77
74103;BME280;62853;46.166;3.640;2023-05-20T12:58:35;101820.84;;;22.77;49.96
74103;BME280;62853;46.166;3.640;2023-05-20T13:01:01;101820.00;;;22.77;52.87
74103;BME280;62853;46.166;3.640;2023-05-20T13:03:26;101819.03;;;22.88;53.63
74103;BME280;62853;46.166;3.640;2023-05-20T13:05:52;101818.31;;;22.76;50.81
74103;BME280;62853;46.166;3.640;2023-05-20T13:08:17;101828.00;;;22.47;50.68
74103;BME280;62853;46.166;3.640;2023-05-20T13:10:42;101801.44;;;22.35;51.52
74103;BME280;62853;46.166;3.640;2023-05-20T13:13:08;101814.72;;;22.36;53.42
74103;BME280;62853;46.166;3.640;2023-05-20T13:15:33;101808.91;;;22.41;51.56
74103;BME280;62853;46.166;3.640;2023-05-20T13:17:59;101805.13;;;22.43;52.78
74103;BME280;62853;46.166;3.640;2023-05-20T13:20:28;101813.34;;;22.61;51.26
74103;BME280;62853;46.166;3.640;2023-05-20T13:22:54;101820.00;;;22.67;50.36
74103;BME280;62853;46.166;3.640;2023-05-20T13:25:19;101805.16;;;22.73;50.01
74103;BME280;62853;46.166;3.640;2023-05-20T13:27:45;101812.91;;;22.56;49.67
74103;BME280;62853;46.166;3.640;2023-05-20T13:30:10;101819.13;;;22.57;51.49
74103;BME280;62853;46.166;3.640;2023-05-20T13:32:36;101808.91;;;22.41;50.85
74103;BME280;62853;46.166;3.640;2023-05-20T13:35:01;101811.75;;;22.39;50.00
74103;BME280;62853;46.166;3.640;2023-05-20T13:37:27;101804.00;;;22.36;53.15
74103;BME280;62853;46.166;3.640;2023-05-20T13:39:52;101814.19;;;22.11;49.59
74103;BME280;62853;46.166;3.640;2023-05-20T13:42:18;101816.28;;;22.08;52.81
74103;BME280;62853;46.166;3.640;2023-05-20T13:44:43;101801.25;;;21.96;52.28
74103;BME280;62853;46.166;3.640;2023-05-20T13:47:09;101795.84;;;21.76;50.28
74103;BME280;62853;46.166;3.640;2023-05-20T13:49:34;101805.22;;;21.61;54.56
74103;BME280;62853;46.166;3.640;2023-05-20T13:51:59;101793.94;;;21.67;53.46
74103;BME280;62853;46.166;3.640;2023-05-20T13:54:25;101797.34;;;21.69;54.33
74103;BME280;62853;46.166;3.640;2023-05-20T13:56:51;101794.38;;;21.72;51.30
74103;BME280;62853;46.166;3.640;2023-05-20T13:59:17;101793.59;;;21.81;53.29
74103;BME280;62853;46.166;3.640;2023-05-20T14:01:42;101789.56;;;21.97;51.61
74103;BME280;62853;46.166;3.640;2023-05-20T14:04:10;101799.50;;;22.06;53.08
74103;BME280;62853;46.166;3.640;2023-05-20T14:06:36;101798.66;;;22.15;53.09
74103;BME280;62853;46.166;3.640;2023-05-20T14:09:02;101795.09;;;22.05;50.13
74103;BME280;62853;46.166;3.640;2023-05-20T14:11:27;101793.81;;;22.09;52.63
74103;BME280;62853;46.166;3.640;2023-05-20T14:13:53;101788.75;;;22.06;51.97
74103;BME280;62853;46.166;3.640;2023-05-20T14:16:18;101788.28;;;22.01;55.18
74103;BME280;62853;46.166;3.640;2023-05-20T14:18:44;101776.63;;;22.11;54.98
74103;BME280;62853;46.166;3.640;2023-05-20T14:21:10;101777.75;;;22.19;55.04
74103;BME280;62853;46.166;3.640;2023-05-20T14:23:35;101775.38;;;22.25;53.20
74103;BME280;62853;46.166;3.640;2023-05-20T14:26:01;101761.66;;;22.19;53.28
74103;BME280;62853;46.166;3.640;2023-05-20T14:28:26;101767.72;;;22.11;49.95
74103;BME280;62853;46.166;3.640;2023-05-20T14:30:52;101772.19;;;22.01;55.47
74103;BME280;62853;46.166;3.640;2023-05-20T14:33:18;101758.19;;;21.87;54.25
74103;BME280;62853;46.166;3.640;2023-05-20T14:35:44;101756.75;;;21.83;52.67
74103;BME280;62853;46.166;3.640;2023-05-20T14:38:09;101768.94;;;21.87;53.57
74103;BME280;62853;46.166;3.640;2023-05-20T14:40:35;101757.19;;;21.88;58.37
74103;BME280;62853;46.166;3.640;2023-05-20T14:43:00;101761.75;;;21.98;53.28
74103;BME280;62853;46.166;3.640;2023-05-20T14:45:26;101764.84;;;21.93;51.77
74103;BME280;62853;46.166;3.640;2023-05-20T14:47:51;101759.19;;;21.86;54.95
74103;BME280;62853;46.166;3.640;2023-05-20T14:50:17;101753.19;;;21.73;52.63
74103;BME280;62853;46.166;3.640;2023-05-20T14:52:42;101756.09;;;21.60;54.09
74103;BME280;62853;46.166;3.640;2023-05-20T14:55:08;101751.47;;;21.62;53.39
74103;BME280;62853;46.166;3.640;2023-05-20T14:57:33;101743.88;;;21.67;52.32
74103;BME280;62853;46.166;3.640;2023-05-20T14:59:59;101733.97;;;21.68;54.77
74103;BME280;62853;46.166;3.640;2023-05-20T15:02:24;101743.28;;;21.64;56.79
74103;BME280;62853;46.166;3.640;2023-05-20T15:04:50;101729.72;;;21.65;52.66
74103;BME280;62853;46.166;3.640;2023-05-20T15:07:15;101731.16;;;21.69;56.27
74103;BME280;62853;46.166;3.640;2023-05-20T15:09:41;101729.72;;;21.55;56.11
74103;BME280;62853;46.166;3.640;2023-05-20T15:12:09;101732.69;;;21.41;53.58
74103;BME280;62853;46.166;3.640;2023-05-20T15:14:35;101732.31;;;21.25;52.71
74103;BME280;62853;46.166;3.640;2023-05-20T15:17:00;101732.38;;;21.34;58.96
74103;BME280;62853;46.166;3.640;2023-05-20T15:19:26;101725.31;;;21.54;56.75
74103;BME280;62853;46.166;3.640;2023-05-20T15:21:52;101721.53;;;21.67;57.20
74103;BME280;62853;46.166;3.640;2023-05-20T15:24:19;101720.44;;;21.69;55.42
74103;BME280;62853;46.166;3.640;2023-05-20T15:26:45;101733.00;;;21.69;54.41
74103;BME280;62853;46.166;3.640;2023-05-20T15:29:10;101724.78;;;21.61;52.55
74103;BME280;62853;46.166;3.640;2023-05-20T15:31:36;101718.97;;;21.55;55.98
74103;BME280;62853;46.166;3.640;2023-05-20T15:34:01;101723.59;;;21.53;53.38
74103;BME280;62853;46.166;3.640;2023-05-20T15:36:27;101711.66;;;21.58;52.98
74103;BME280;62853;46.166;3.640;2023-05-20T15:38:52;101719.44;;;21.61;52.97
74103;BME280;62853;46.166;3.640;2023-05-20T15:41:17;101713.94;;;21.62;54.36
74103;BME280;62853;46.166;3.640;2023-05-20T15:43:43;101717.28;;;21.54;53.12
74103;BME280;62853;46.166;3.640;2023-05-20T15:46:10;101713.22;;;21.39;54.42
74103;BME280;62853;46.166;3.640;2023-05-20T15:48:35;101709.09;;;21.35;55.05
74103;BME280;62853;46.166;3.640;2023-05-20T15:51:02;101705.31;;;21.37;52.61
74103;BME280;62853;46.166;3.640;2023-05-20T15:53:27;101705.50;;;21.46;54.26
74103;BME280;62853;46.166;3.640;2023-05-20T15:55:53;101700.22;;;21.55;55.34
74103;BME280;62853;46.166;3.640;2023-05-20T15:58:18;101700.97;;;21.67;55.88
74103;BME280;62853;46.166;3.640;2023-05-20T16:00:43;101697.72;;;21.64;53.20
74103;BME280;62853;46.166;3.640;2023-05-20T16:03:09;101704.84;;;21.53;53.19
74103;BME280;62853;46.166;3.640;2023-05-20T16:05:35;101693.94;;;21.45;53.52
74103;BME280;62853;46.166;3.640;2023-05-20T16:08:01;101694.06;;;21.44;54.52
74103;BME280;62853;46.166;3.640;2023-05-20T16:10:38;101704.34;;;21.39;53.10
74103;BME280;62853;46.166;3.640;2023-05-20T16:13:03;101682.84;;;21.29;51.02
74103;BME280;62853;46.166;3.640;2023-05-20T16:15:28;101692.94;;;21.15;51.99
74103;BME280;62853;46.166;3.640;2023-05-20T16:18:01;101692.50;;;21.10;52.42
74103;BME280;62853;46.166;3.640;2023-05-20T16:20:27;101689.34;;;21.05;56.12
74103;BME280;62853;46.166;3.640;2023-05-20T16:22:52;101692.69;;;20.97;55.14
74103;BME280;62853;46.166;3.640;2023-05-20T16:25:18;101689.03;;;20.98;52.37
74103;BME280;62853;46.166;3.640;2023-05-20T16:27:43;101689.88;;;20.99;53.41
74103;BME280;62853;46.166;3.640;2023-05-20T16:30:09;101686.09;;;21.02;53.39
74103;BME280;62853;46.166;3.640;2023-05-20T16:32:38;101683.75;;;21.08;51.43
74103;BME280;62853;46.166;3.640;2023-05-20T16:35:04;101684.00;;;21.05;53.15
74103;BME280;62853;46.166;3.640;2023-05-20T16:37:33;101689.09;;;21.08;52.59
74103;BME280;62853;46.166;3.640;2023-05-20T16:39:59;101683.09;;;20.95;53.56
74103;BME280;62853;46.166;3.640;2023-05-20T16:42:24;101688.44;;;20.95;53.50
74103;BME280;62853;46.166;3.640;2023-05-20T16:44:52;101684.75;;;20.86;52.77
74103;BME280;62853;46.166;3.640;2023-05-20T16:47:17;101689.75;;;20.79;52.75
74103;BME280;62853;46.166;3.640;2023-05-20T16:49:43;101686.88;;;20.71;52.26
74103;BME280;62853;46.166;3.640;2023-05-20T16:52:08;101686.91;;;20.60;51.77
74103;BME280;62853;46.166;3.640;2023-05-20T16:54:34;101695.97;;;20.48;51.24
74103;BME280;62853;46.166;3.640;2023-05-20T16:57:02;101699.00;;;20.43;51.74
74103;BME280;62853;46.166;3.640;2023-05-20T16:59:29;101686.22;;;20.47;52.05
74103;BME280;62853;46.166;3.640;2023-05-20T17:01:55;101682.06;;;20.54;55.44
74103;BME280;62853;46.166;3.640;2023-05-20T17:04:21;101689.09;;;20.66;51.67
74103;BME280;62853;46.166;3.640;2023-05-20T17:06:46;101686.41;;;20.66;53.42
74103;BME280;62853;46.166;3.640;2023-05-20T17:09:14;101681.31;;;20.63;54.67
74103;BME280;62853;46.166;3.640;2023-05-20T17:11:40;101693.16;;;20.81;54.06
74103;BME280;62853;46.166;3.640;2023-05-20T17:14:06;101686.41;;;20.87;55.47
74103;BME280;62853;46.166;3.640;2023-05-20T17:16:31;101694.25;;;20.79;55.21
74103;BME280;62853;46.166;3.640;2023-05-20T17:18:57;101696.53;;;20.62;52.94
74103;BME280;62853;46.166;3.640;2023-05-20T17:21:23;101709.47;;;20.46;53.09
74103;BME280;62853;46.166;3.640;2023-05-20T17:23:48;101725.78;;;20.32;55.41
74103;BME280;62853;46.166;3.640;2023-05-20T17:26:14;101714.88;;;20.23;54.99
74103;BME280;62853;46.166;3.640;2023-05-20T17:28:40;101715.16;;;20.20;53.75
74103;BME280;62853;46.166;3.640;2023-05-20T17:31:06;101714.81;;;20.14;52.88
74103;BME280;62853;46.166;3.640;2023-05-20T17:33:33;101721.00;;;20.03;53.46
74103;BME280;62853;46.166;3.640;2023-05-20T17:35:58;101720.53;;;19.98;56.65
74103;BME280;62853;46.166;3.640;2023-05-20T17:38:23;101715.81;;;19.79;55.50
74103;BME280;62853;46.166;3.640;2023-05-20T17:40:51;101714.09;;;19.66;55.14
74103;BME280;62853;46.166;3.640;2023-05-20T17:43:17;101716.41;;;19.60;61.84
74103;BME280;62853;46.166;3.640;2023-05-20T17:45:42;101713.63;;;19.50;57.37
74103;BME280;62853;46.166;3.640;2023-05-20T17:48:07;101713.50;;;19.51;58.02
74103;BME280;62853;46.166;3.640;2023-05-20T17:50:33;101710.34;;;19.46;59.72
74103;BME280;62853;46.166;3.640;2023-05-20T17:52:58;101713.97;;;19.45;57.21
74103;BME280;62853;46.166;3.640;2023-05-20T17:55:24;101715.28;;;19.51;56.61
74103;BME280;62853;46.166;3.640;2023-05-20T17:57:49;101707.28;;;19.62;59.53
74103;BME280;62853;46.166;3.640;2023-05-20T18:00:15;101722.84;;;19.68;58.16
74103;BME280;62853;46.166;3.640;2023-05-20T18:02:45;101716.91;;;19.65;56.66
74103;BME280;62853;46.166;3.640;2023-05-20T18:05:12;101714.47;;;19.62;58.11
74103;BME280;62853;46.166;3.640;2023-05-20T18:07:38;101718.72;;;19.53;60.07
74103;BME280;62853;46.166;3.640;2023-05-20T18:10:05;101727.94;;;19.49;57.67
74103;BME280;62853;46.166;3.640;2023-05-20T18:12:30;101721.59;;;19.39;58.18
74103;BME280;62853;46.166;3.640;2023-05-20T18:14:56;101713.44;;;19.29;57.52
74103;BME280;62853;46.166;3.640;2023-05-20T18:17:21;101713.81;;;19.13;59.41
74103;BME280;62853;46.166;3.640;2023-05-20T18:19:46;101707.25;;;19.06;61.43
74103;BME280;62853;46.166;3.640;2023-05-20T18:22:12;101712.09;;;19.01;61.11
74103;BME280;62853;46.166;3.640;2023-05-20T18:24:37;101712.66;;;18.93;63.76
74103;BME280;62853;46.166;3.640;2023-05-20T18:27:03;101717.41;;;18.89;60.31
74103;BME280;62853;46.166;3.640;2023-05-20T18:29:28;101727.75;;;18.81;62.53
74103;BME280;62853;46.166;3.640;2023-05-20T18:31:55;101727.16;;;18.77;59.86
74103;BME280;62853;46.166;3.640;2023-05-20T18:34:20;101723.97;;;18.72;60.33
74103;BME280;62853;46.166;3.640;2023-05-20T18:36:45;101721.88;;;18.65;62.32
74103;BME280;62853;46.166;3.640;2023-05-20T18:39:11;101727.91;;;18.55;62.72
74103;BME280;62853;46.166;3.640;2023-05-20T18:41:38;101736.25;;;18.51;64.34
74103;BME280;62853;46.166;3.640;2023-05-20T18:44:04;101735.97;;;18.43;62.59
74103;BME280;62853;46.166;3.640;2023-05-20T18:46:29;101736.41;;;18.36;62.89
74103;BME280;62853;46.166;3.640;2023-05-20T18:48:55;101734.84;;;18.34;63.00
74103;BME280;62853;46.166;3.640;2023-05-20T18:51:20;101742.09;;;18.32;66.36
74103;BME280;62853;46.166;3.640;2023-05-20T18:53:46;101731.47;;;18.19;65.48
74103;BME280;62853;46.166;3.640;2023-05-20T18:56:11;101733.84;;;18.11;66.28
74103;BME280;62853;46.166;3.640;2023-05-20T18:58:37;101732.47;;;18.05;70.66
74103;BME280;62853;46.166;3.640;2023-05-20T19:01:02;101737.41;;;17.98;69.00
74103;BME280;62853;46.166;3.640;2023-05-20T19:03:28;101734.09;;;17.95;68.88
74103;BME280;62853;46.166;3.640;2023-05-20T19:05:53;101735.50;;;17.88;65.52
74103;BME280;62853;46.166;3.640;2023-05-20T19:08:19;101743.16;;;17.79;67.98
74103;BME280;62853;46.166;3.640;2023-05-20T19:10:44;101742.09;;;17.82;68.02
74103;BME280;62853;46.166;3.640;2023-05-20T19:13:10;101741.66;;;17.75;66.63
74103;BME280;62853;46.166;3.640;2023-05-20T19:15:35;101745.00;;;17.66;69.04
74103;BME280;62853;46.166;3.640;2023-05-20T19:18:01;101753.50;;;17.58;73.23
74103;BME280;62853;46.166;3.640;2023-05-20T19:20:26;101758.00;;;17.58;74.68
74103;BME280;62853;46.166;3.640;2023-05-20T19:22:51;101752.97;;;17.53;70.50
74103;BME280;62853;46.166;3.640;2023-05-20T19:25:20;101760.44;;;17.48;73.81
74103;BME280;62853;46.166;3.640;2023-05-20T19:27:45;101766.19;;;17.42;77.91
74103;BME280;62853;46.166;3.640;2023-05-20T19:30:11;101751.59;;;17.35;75.95
74103;BME280;62853;46.166;3.640;2023-05-20T19:32:37;101767.69;;;17.33;78.41
74103;BME280;62853;46.166;3.640;2023-05-20T19:35:03;101766.94;;;17.31;83.43
74103;BME280;62853;46.166;3.640;2023-05-20T19:37:30;101767.88;;;17.30;89.14
74103;BME280;62853;46.166;3.640;2023-05-20T19:39:56;101766.84;;;17.33;86.35
74103;BME280;62853;46.166;3.640;2023-05-20T19:42:21;101759.88;;;17.30;88.60
74103;BME280;62853;46.166;3.640;2023-05-20T19:44:47;101754.16;;;17.36;88.86
74103;BME280;62853;46.166;3.640;2023-05-20T19:47:12;101761.72;;;17.29;89.05
74103;BME280;62853;46.166;3.640;2023-05-20T19:49:38;101763.63;;;17.27;95.97
74103;BME280;62853;46.166;3.640;2023-05-20T19:52:04;101765.88;;;17.34;88.22
74103;BME280;62853;46.166;3.640;2023-05-20T19:54:30;101771.84;;;17.37;87.84
74103;BME280;62853;46.166;3.640;2023-05-20T19:56:55;101774.19;;;17.29;92.94
74103;BME280;62853;46.166;3.640;2023-05-20T19:59:21;101768.41;;;17.22;89.57
74103;BME280;62853;46.166;3.640;2023-05-20T20:01:46;101770.22;;;17.09;90.45
74103;BME280;62853;46.166;3.640;2023-05-20T20:04:12;101774.44;;;16.99;98.28
74103;BME280;62853;46.166;3.640;2023-05-20T20:06:41;101763.25;;;16.94;97.44
74103;BME280;62853;46.166;3.640;2023-05-20T20:09:06;101768.50;;;16.81;100.00
74103;BME280;62853;46.166;3.640;2023-05-20T20:11:32;101771.16;;;16.81;98.67
74103;BME280;62853;46.166;3.640;2023-05-20T20:13:58;101778.06;;;16.70;100.00
74103;BME280;62853;46.166;3.640;2023-05-20T20:16:23;101773.22;;;16.63;100.00
74103;BME280;62853;46.166;3.640;2023-05-20T20:18:50;101774.53;;;16.70;100.00
74103;BME280;62853;46.166;3.640;2023-05-20T20:21:16;101780.44;;;16.61;100.00
74103;BME280;62853;46.166;3.640;2023-05-20T20:23:42;101771.44;;;16.63;94.24
74103;BME280;62853;46.166;3.640;2023-05-20T20:26:07;101768.22;;;16.58;100.00
74103;BME280;62853;46.166;3.640;2023-05-20T20:28:33;101774.69;;;16.54;100.00
74103;BME280;62853;46.166;3.640;2023-05-20T20:30:59;101777.44;;;16.52;91.76
74103;BME280;62853;46.166;3.640;2023-05-20T20:33:24;101773.38;;;16.47;96.55
74103;BME280;62853;46.166;3.640;2023-05-20T20:35:50;101769.50;;;16.38;100.00
74103;BME280;62853;46.166;3.640;2023-05-20T20:38:18;101769.50;;;16.38;95.48
74103;BME280;62853;46.166;3.640;2023-05-20T20:40:44;101768.50;;;16.26;95.88
74103;BME280;62853;46.166;3.640;2023-05-20T20:43:10;101774.09;;;16.22;100.00
74103;BME280;62853;46.166;3.640;2023-05-20T20:45:42;101771.34;;;16.23;95.31
74103;BME280;62853;46.166;3.640;2023-05-20T20:48:09;101769.72;;;16.21;93.05
74103;BME280;62853;46.166;3.640;2023-05-20T20:50:34;101773.25;;;16.21;100.00
74103;BME280;62853;46.166;3.640;2023-05-20T20:53:00;101769.94;;;16.17;100.00
74103;BME280;62853;46.166;3.640;2023-05-20T20:55:26;101776.38;;;16.13;100.00
74103;BME280;62853;46.166;3.640;2023-05-20T20:57:55;101777.13;;;16.15;96.40
74103;BME280;62853;46.166;3.640;2023-05-20T21:00:21;101779.78;;;16.15;99.43
74103;BME280;62853;46.166;3.640;2023-05-20T21:02:48;101778.28;;;16.11;100.00
74103;BME280;62853;46.166;3.640;2023-05-20T21:05:14;101773.59;;;16.02;98.38
74103;BME280;62853;46.166;3.640;2023-05-20T21:07:41;101774.25;;;16.06;100.00
74103;BME280;62853;46.166;3.640;2023-05-20T21:10:10;101759.41;;;16.02;100.00
74103;BME280;62853;46.166;3.640;2023-05-20T21:12:37;101760.47;;;15.99;100.00
74103;BME280;62853;46.166;3.640;2023-05-20T21:15:02;101755.63;;;15.91;100.00
74103;BME280;62853;46.166;3.640;2023-05-20T21:17:28;101751.06;;;15.93;100.00
74103;BME280;62853;46.166;3.640;2023-05-20T21:19:53;101749.09;;;15.83;100.00
74103;BME280;62853;46.166;3.640;2023-05-20T21:22:19;101754.13;;;15.87;100.00
74103;BME280;62853;46.166;3.640;2023-05-20T21:24:45;101748.81;;;15.87;100.00
74103;BME280;62853;46.166;3.640;2023-05-20T21:27:10;101745.03;;;15.77;100.00
74103;BME280;62853;46.166;3.640;2023-05-20T21:29:36;101750.50;;;15.74;100.00
74103;BME280;62853;46.166;3.640;2023-05-20T21:32:01;101743.84;;;15.67;100.00
74103;BME280;62853;46.166;3.640;2023-05-20T21:34:27;101735.13;;;15.65;100.00
74103;BME280;62853;46.166;3.640;2023-05-20T21:36:52;101738.66;;;15.65;100.00
74103;BME280;62853;46.166;3.640;2023-05-20T21:39:18;101741.59;;;15.60;100.00
74103;BME280;62853;46.166;3.640;2023-05-20T21:41:43;101744.50;;;15.56;100.00
74103;BME280;62853;46.166;3.640;2023-05-20T21:44:09;101745.25;;;15.58;100.00
74103;BME280;62853;46.166;3.640;2023-05-20T21:46:34;101744.34;;;15.59;100.00
74103;BME280;62853;46.166;3.640;2023-05-20T21:48:59;101738.34;;;15.55;100.00
74103;BME280;62853;46.166;3.640;2023-05-20T21:51:25;101743.94;;;15.51;100.00
74103;BME280;62853;46.166;3.640;2023-05-20T21:53:50;101745.94;;;15.47;100.00
74103;BME280;62853;46.166;3.640;2023-05-20T21:56:16;101744.41;;;15.43;100.00
74103;BME280;62853;46.166;3.640;2023-05-20T21:58:41;101739.66;;;15.34;100.00
74103;BME280;62853;46.166;3.640;2023-05-20T22:01:07;101745.72;;;15.36;100.00
74103;BME280;62853;46.166;3.640;2023-05-20T22:03:35;101740.81;;;15.30;100.00
74103;BME280;62853;46.166;3.640;2023-05-20T22:06:02;101741.91;;;15.25;100.00
74103;BME280;62853;46.166;3.640;2023-05-20T22:08:29;101748.78;;;15.30;100.00
74103;BME280;62853;46.166;3.640;2023-05-20T22:10:58;101742.19;;;15.21;100.00
74103;BME280;62853;46.166;3.640;2023-05-20T22:13:32;101737.59;;;15.24;100.00
74103;BME280;62853;46.166;3.640;2023-05-20T22:15:59;101741.16;;;15.23;100.00
74103;BME280;62853;46.166;3.640;2023-05-20T22:18:26;101742.28;;;15.19;100.00
74103;BME280;62853;46.166;3.640;2023-05-20T22:20:51;101736.53;;;15.13;100.00
74103;BME280;62853;46.166;3.640;2023-05-20T22:23:19;101734.31;;;15.05;100.00